createdAt,value
2019-03-22T00:00:07.355Z,4.69
2019-03-22T00:05:01.953Z,4.66
2019-03-22T00:09:56.551Z,4.54
2019-03-22T00:14:51.180Z,4.59
2019-03-22T00:19:45.760Z,4.58
2019-03-22T00:24:40.352Z,4.43
2019-03-22T00:29:34.918Z,4.33
2019-03-22T00:34:29.535Z,4.22
2019-03-22T00:39:24.099Z,4.17
2019-03-22T00:44:18.702Z,4.12
2019-03-22T00:49:13.289Z,4.05
2019-03-22T00:54:07.870Z,3.95
2019-03-22T00:59:02.433Z,4.01
2019-03-22T01:03:57.030Z,3.96
2019-03-22T01:08:51.617Z,3.90
2019-03-22T01:13:46.257Z,3.80
2019-03-22T01:18:40.901Z,3.79
2019-03-22T01:23:35.496Z,3.73
2019-03-22T01:28:30.071Z,3.73
2019-03-22T01:33:24.682Z,3.64
2019-03-22T01:38:19.254Z,3.56
2019-03-22T01:43:13.837Z,3.42
2019-03-22T01:48:08.479Z,3.34
2019-03-22T01:53:03.226Z,3.33
2019-03-22T01:57:57.806Z,3.28
2019-03-22T02:02:52.426Z,3.23
2019-03-22T02:07:47.070Z,3.31
2019-03-22T02:12:41.795Z,3.34
2019-03-22T02:17:36.398Z,3.37
2019-03-22T02:22:30.972Z,3.38
2019-03-22T02:27:25.556Z,3.26
2019-03-22T02:32:20.198Z,3.23
2019-03-22T02:37:14.769Z,3.10
2019-03-22T02:42:09.356Z,3.04
2019-03-22T02:47:04.005Z,2.99
2019-03-22T02:51:58.675Z,2.96
2019-03-22T02:56:53.274Z,2.95
2019-03-22T03:01:47.926Z,2.94
2019-03-22T03:06:42.575Z,2.91
2019-03-22T03:11:37.176Z,2.86
2019-03-22T03:16:31.747Z,2.72
2019-03-22T03:21:26.351Z,2.58
2019-03-22T03:26:20.938Z,2.40
2019-03-22T03:31:15.555Z,2.37
2019-03-22T03:36:10.134Z,2.41
2019-03-22T03:41:04.801Z,2.46
2019-03-22T03:45:59.456Z,2.51
2019-03-22T03:50:54.068Z,2.38
2019-03-22T03:55:48.652Z,2.33
2019-03-22T04:00:43.339Z,2.34
2019-03-22T04:05:37.970Z,2.32
2019-03-22T04:10:32.625Z,2.31
2019-03-22T04:15:27.193Z,2.27
2019-03-22T04:20:21.810Z,2.19
2019-03-22T04:25:16.556Z,2.09
2019-03-22T04:30:11.687Z,2.00
2019-03-22T04:35:08.481Z,2.02
2019-03-22T04:40:03.267Z,2.00
2019-03-22T04:44:57.838Z,1.98
2019-03-22T04:49:55.666Z,1.98
2019-03-22T04:54:54.101Z,1.93
2019-03-22T04:59:50.937Z,1.81
2019-03-22T05:04:48.926Z,1.75
2019-03-22T05:09:45.082Z,1.76
2019-03-22T05:14:43.148Z,1.82
2019-03-22T05:19:42.397Z,1.77
2019-03-22T05:24:39.846Z,2.02
2019-03-22T05:29:39.003Z,2.19
2019-03-22T05:34:33.675Z,2.09
2019-03-22T05:39:28.346Z,2.10
2019-03-22T05:44:22.934Z,2.62
2019-03-22T05:49:17.548Z,2.92
2019-03-22T05:54:12.110Z,3.51
2019-03-22T05:59:06.778Z,4.23
2019-03-22T06:04:01.396Z,4.92
2019-03-22T06:08:55.999Z,5.66
2019-03-22T06:13:50.654Z,6.33
2019-03-22T06:18:45.389Z,6.75
2019-03-22T06:23:39.974Z,7.64
2019-03-22T06:28:34.591Z,7.98
2019-03-22T06:33:39.273Z,7.74
2019-03-22T06:38:34.048Z,8.06
2019-03-22T06:43:28.799Z,8.07
2019-03-22T06:48:23.407Z,7.87
2019-03-22T06:53:19.758Z,7.39
2019-03-22T06:58:14.356Z,7.52
2019-03-22T07:03:09.451Z,7.46
2019-03-22T07:08:04.124Z,7.51
2019-03-22T07:12:58.722Z,7.63
2019-03-22T07:17:53.333Z,7.64
2019-03-22T07:22:47.953Z,7.70
2019-03-22T07:27:44.237Z,7.44
2019-03-22T07:32:38.828Z,7.49
2019-03-22T07:37:33.430Z,7.85
2019-03-22T07:42:29.672Z,7.88
2019-03-22T07:47:25.767Z,8.00
2019-03-22T07:52:20.403Z,8.10
2019-03-22T07:57:15.032Z,8.26
2019-03-22T08:02:09.712Z,8.28
2019-03-22T08:07:04.427Z,8.41
2019-03-22T08:11:59.076Z,8.62
2019-03-22T08:16:53.814Z,8.75
2019-03-22T08:21:48.541Z,9.08
2019-03-22T08:26:43.241Z,9.30
2019-03-22T08:31:38.967Z,9.49
2019-03-22T08:36:33.681Z,9.59
2019-03-22T08:41:28.589Z,9.85
2019-03-22T08:46:23.301Z,10.00
2019-03-22T08:51:29.857Z,9.76
2019-03-22T08:56:24.717Z,10.06
2019-03-22T09:01:29.509Z,10.20
2019-03-22T09:06:32.509Z,10.45
2019-03-22T09:11:27.945Z,10.09
2019-03-22T09:16:23.554Z,10.39
2019-03-22T09:21:20.348Z,10.45
2019-03-22T09:26:15.061Z,10.33
2019-03-22T09:31:10.621Z,10.62
2019-03-22T09:36:06.342Z,10.80
2019-03-22T09:41:02.493Z,10.85
2019-03-22T09:45:57.249Z,10.51
2019-03-22T09:50:53.828Z,10.81
2019-03-22T09:55:48.579Z,10.85
2019-03-22T10:00:44.300Z,11.10
2019-03-22T10:05:39.955Z,11.33
2019-03-22T10:10:34.609Z,11.58
2019-03-22T10:15:29.464Z,11.80
2019-03-22T10:20:24.272Z,11.76
2019-03-22T10:25:18.876Z,11.74
2019-03-22T10:30:16.855Z,11.60
2019-03-22T10:35:25.040Z,11.53
2019-03-22T10:40:08.844Z,11.71
2019-03-22T10:45:04.715Z,11.88
2019-03-22T10:49:59.490Z,11.89
2019-03-22T10:54:54.596Z,12.20
2019-03-22T10:59:49.360Z,12.54
2019-03-22T11:04:44.236Z,12.79
2019-03-22T11:09:38.873Z,12.35
2019-03-22T11:14:33.523Z,12.30
2019-03-22T11:19:28.224Z,12.38
2019-03-22T11:24:23.627Z,12.37
2019-03-22T11:29:18.290Z,12.42
2019-03-22T11:34:12.927Z,12.00
2019-03-22T11:39:15.859Z,12.28
2019-03-22T11:44:09.017Z,12.55
2019-03-22T11:49:03.798Z,12.39
2019-03-22T11:53:58.448Z,12.78
2019-03-22T11:58:53.050Z,12.77
2019-03-22T12:09:10.930Z,13.16
2019-03-22T12:14:06.687Z,13.39
2019-03-22T12:19:01.423Z,13.52
2019-03-22T12:23:56.378Z,13.50
2019-03-22T12:28:51.079Z,13.38
2019-03-22T12:33:45.834Z,13.67
2019-03-22T12:38:45.064Z,13.72
2019-03-22T12:43:46.749Z,13.75
2019-03-22T12:48:44.044Z,13.56
2019-03-22T12:53:42.321Z,13.83
2019-03-22T12:58:37.281Z,14.10
2019-03-22T13:03:32.347Z,14.27
2019-03-22T13:08:28.103Z,14.28
2019-03-22T13:13:22.739Z,14.41
2019-03-22T13:18:17.377Z,14.69
2019-03-22T13:23:12.151Z,14.68
2019-03-22T13:28:06.836Z,14.79
2019-03-22T13:33:01.545Z,14.52
2019-03-22T13:37:56.197Z,14.89
2019-03-22T13:42:50.785Z,14.93
2019-03-22T13:47:45.518Z,14.92
2019-03-22T13:52:40.325Z,14.77
2019-03-22T13:57:38.795Z,14.96
2019-03-22T14:02:33.570Z,14.98
2019-03-22T14:07:28.234Z,15.12
2019-03-22T14:12:22.860Z,15.05
2019-03-22T14:17:17.754Z,15.12
2019-03-22T14:22:12.396Z,15.14
2019-03-22T14:27:07.110Z,14.90
2019-03-22T14:32:01.725Z,14.98
2019-03-22T14:36:56.461Z,15.38
2019-03-22T14:41:51.111Z,15.54
2019-03-22T14:46:45.811Z,15.74
2019-03-22T14:51:40.462Z,15.65
2019-03-22T14:56:35.188Z,15.87
2019-03-22T15:01:29.855Z,15.83
2019-03-22T15:06:24.505Z,15.95
2019-03-22T15:11:19.305Z,15.85
2019-03-22T15:16:22.828Z,15.81
2019-03-22T15:21:32.279Z,15.75
2019-03-22T15:26:34.401Z,15.65
2019-03-22T15:31:28.970Z,15.60
2019-03-22T15:36:40.348Z,15.50
2019-03-22T15:41:35.287Z,15.57
2019-03-22T15:46:30.023Z,15.49
2019-03-22T15:51:24.632Z,15.41
2019-03-22T15:56:19.260Z,15.52
2019-03-22T16:01:13.874Z,15.46
2019-03-22T16:06:08.517Z,15.38
2019-03-22T16:11:03.193Z,15.28
2019-03-22T16:15:57.810Z,15.02
2019-03-22T16:20:59.871Z,14.95
2019-03-22T16:25:48.811Z,14.89
2019-03-22T16:30:43.563Z,14.82
2019-03-22T16:35:38.188Z,14.68
2019-03-22T16:40:32.807Z,14.60
2019-03-22T16:45:37.539Z,14.56
2019-03-22T16:50:32.201Z,14.59
2019-03-22T16:55:26.831Z,14.55
2019-03-22T17:00:21.918Z,14.22
2019-03-22T17:05:16.664Z,14.06
2019-03-22T17:10:11.760Z,13.97
2019-03-22T17:15:08.296Z,13.50
2019-03-22T17:20:02.981Z,13.12
2019-03-22T17:24:58.399Z,12.81
2019-03-22T17:29:53.270Z,12.64
2019-03-22T17:34:47.879Z,12.44
2019-03-22T17:39:42.511Z,12.19
2019-03-22T17:44:37.171Z,12.07
2019-03-22T17:49:31.794Z,11.89
2019-03-22T17:54:26.400Z,11.75
2019-03-22T17:59:21.010Z,11.63
2019-03-22T18:04:23.849Z,11.55
2019-03-22T18:09:11.943Z,11.47
2019-03-22T18:14:06.609Z,11.35
2019-03-22T18:19:01.238Z,11.33
2019-03-22T18:23:55.906Z,11.23
2019-03-22T18:28:50.524Z,11.11
2019-03-22T18:33:45.146Z,11.01
2019-03-22T18:38:39.765Z,10.89
2019-03-22T18:43:34.370Z,10.75
2019-03-22T18:48:29.059Z,10.70
2019-03-22T18:53:23.692Z,10.69
2019-03-22T18:58:18.308Z,10.57
2019-03-22T19:03:12.974Z,10.46
2019-03-22T19:08:07.583Z,10.49
2019-03-22T19:13:02.225Z,10.37
2019-03-22T19:17:56.856Z,10.24
2019-03-22T19:22:51.458Z,10.07
2019-03-22T19:27:46.071Z,9.90
2019-03-22T19:32:40.747Z,9.93
2019-03-22T19:37:35.428Z,9.83
2019-03-22T19:42:30.025Z,9.69
2019-03-22T19:47:24.631Z,9.56
2019-03-22T19:52:19.260Z,9.49
2019-03-22T19:57:13.877Z,9.37
2019-03-22T20:02:08.464Z,9.22
2019-03-22T20:07:03.075Z,9.06
2019-03-22T20:11:57.682Z,8.87
2019-03-22T20:16:52.360Z,8.69
2019-03-22T20:21:46.952Z,8.56
2019-03-22T20:26:41.569Z,8.43
2019-03-22T20:31:36.164Z,8.36
2019-03-22T20:36:30.788Z,8.34
2019-03-22T20:41:25.379Z,8.25
2019-03-22T20:46:20.851Z,8.15
2019-03-22T20:51:15.472Z,8.04
2019-03-22T20:56:10.073Z,8.00
2019-03-22T21:01:04.661Z,7.85
2019-03-22T21:05:59.277Z,7.74
2019-03-22T21:10:53.876Z,7.63
2019-03-22T21:15:48.552Z,7.50
2019-03-22T21:20:43.142Z,7.38
2019-03-22T21:25:37.758Z,7.30
2019-03-22T21:30:32.345Z,7.32
2019-03-22T21:35:36.666Z,7.26
2019-03-22T21:40:23.260Z,7.25
2019-03-22T21:45:17.933Z,7.06
2019-03-22T21:50:12.685Z,6.93
2019-03-22T21:55:09.836Z,6.77
2019-03-22T22:00:12.880Z,6.75
2019-03-22T22:05:08.777Z,6.63
2019-03-22T22:10:04.732Z,6.61
2019-03-22T22:14:59.339Z,6.56
2019-03-22T22:19:53.937Z,6.54
2019-03-22T22:24:48.542Z,6.42
2019-03-22T22:29:43.138Z,6.33
2019-03-22T22:34:37.754Z,6.21
2019-03-22T22:39:32.368Z,6.19
2019-03-22T22:44:26.972Z,6.14
2019-03-22T22:49:21.655Z,6.07
2019-03-22T22:54:16.322Z,6.02
2019-03-22T22:59:10.902Z,5.94
2019-03-22T23:04:05.576Z,5.89
2019-03-22T23:09:00.169Z,5.76
2019-03-22T23:13:54.761Z,5.70
2019-03-22T23:18:49.370Z,5.57
2019-03-22T23:23:43.963Z,5.43
2019-03-22T23:28:38.555Z,5.45
2019-03-22T23:33:33.167Z,5.62
2019-03-22T23:38:27.775Z,5.53
2019-03-22T23:43:22.381Z,5.50
2019-03-22T23:48:16.976Z,5.43
2019-03-22T23:53:11.590Z,5.42
2019-03-22T23:58:06.246Z,5.36
